O Brien, Florida
Current Conditions -  °F | °C
As of 12:15 PM on Friday 28 Nov 2014 (Local Time) from K24J Reporting Station
Clear Clear  
Wind Chill: 52°   Ceiling: Unl
Heat Index: 52°   Visibility: 10mi
Dew Point: 30°   Wind: 6mph
Humidity: 44%   Direction: 20°NNE
Pressure: 30.39"   Gusts: NA
Location:  30.0381°N, 82.9437°W
Report Text: K24J 281715Z AUTO 02005KT 10SM CLR 11/M01 A3039 RMK AO1
Loading
Personal Weather Stations






























Interactive Weather Map New forecast layout! Learn more

10-Day Weather Forecast

Advertisements
Track Severe Weather on mobile